Time;durP1;ratioP1;P1;durP2;ratioP2;P2;SDS_P1;SDS_P2;PMS_P1;PMS_P2;Temp;Humidity;BMP_temperature;BMP_pressure;BME280_temperature;BME280_humidity;BME280_pressure;Samples;Min_cycle;Max_cycle;Signal;HPM_P1;HPM_P2
2023/04/09 00:02:12;;;;;;;31.70;19.53;;;;;;;9.62;60.04;101721.34;5017892;28;20991;-78
2023/04/09 00:04:37;;;;;;;34.88;20.65;;;;;;;9.73;59.20;101704.50;5019632;28;20872;-79
2023/04/09 00:07:03;;;;;;;32.35;19.98;;;;;;;9.83;58.89;101712.44;5017562;28;20474;-79
2023/04/09 00:09:29;;;;;;;34.87;20.03;;;;;;;9.73;59.45;101707.16;5016748;28;20376;-79
2023/04/09 00:11:55;;;;;;;32.20;18.67;;;;;;;9.68;59.39;101719.97;5015018;28;20453;-79
2023/04/09 00:14:21;;;;;;;30.88;18.95;;;;;;;9.66;59.90;101714.81;5015934;28;20480;-79
2023/04/09 00:16:47;;;;;;;32.60;19.52;;;;;;;9.82;59.60;101726.66;5015214;28;20383;-78
2023/04/09 00:19:12;;;;;;;33.23;18.13;;;;;;;9.84;58.92;101717.59;5016173;28;20387;-78
2023/04/09 00:21:37;;;;;;;31.60;18.93;;;;;;;9.82;59.35;101713.41;5020555;28;20864;-79
2023/04/09 00:24:04;;;;;;;33.35;19.05;;;;;;;9.76;59.59;101718.28;5018266;28;20474;-79
2023/04/09 00:26:30;;;;;;;31.92;18.65;;;;;;;9.80;59.17;101718.03;5017192;28;20435;-79
2023/04/09 00:28:55;;;;;;;32.53;18.38;;;;;;;9.85;59.57;101715.75;5017990;28;20479;-79
2023/04/09 00:31:21;;;;;;;31.17;19.00;;;;;;;9.68;60.04;101709.38;5017191;28;20780;-79
2023/04/09 00:33:46;;;;;;;32.75;19.20;;;;;;;9.76;59.87;101710.34;5016318;28;20403;-78
2023/04/09 00:36:12;;;;;;;29.37;18.30;;;;;;;9.80;60.00;101716.19;5015604;28;20380;-78
2023/04/09 00:38:37;;;;;;;29.70;18.23;;;;;;;9.90;59.58;101711.75;5014781;28;20399;-78
2023/04/09 00:41:03;;;;;;;26.87;17.50;;;;;;;9.98;59.52;101718.97;5016574;28;20372;-78
2023/04/09 00:43:28;;;;;;;33.87;18.87;;;;;;;9.91;59.66;101720.50;5017525;28;20418;-78
2023/04/09 00:45:54;;;;;;;32.10;19.10;;;;;;;9.93;59.41;101708.78;5014590;28;20408;-78
2023/04/09 00:48:20;;;;;;;33.90;21.00;;;;;;;10.03;59.15;101719.41;5013724;28;20864;-77
2023/04/09 00:50:45;;;;;;;35.28;20.63;;;;;;;10.06;58.99;101724.38;5014641;28;20377;-79
2023/04/09 00:53:13;;;;;;;32.60;18.50;;;;;;;9.93;59.39;101715.91;5014050;28;20404;-79
2023/04/09 00:55:40;;;;;;;31.42;18.48;;;;;;;9.80;59.74;101718.84;5015374;28;20380;-79
2023/04/09 00:58:06;;;;;;;32.03;18.20;;;;;;;9.75;60.13;101716.59;5014834;28;20448;-78
2023/04/09 01:00:31;;;;;;;31.07;17.77;;;;;;;9.74;59.51;101706.16;5014262;28;20395;-78
2023/04/09 01:02:58;;;;;;;28.80;17.90;;;;;;;9.98;59.43;101720.81;5013605;28;20419;-78
2023/04/09 01:05:43;;;;;;;31.55;18.77;;;;;;;10.04;58.80;101715.75;5014485;28;20880;-79
2023/04/09 01:08:45;;;;;;;32.97;18.30;;;;;;;10.09;59.04;101708.22;5015573;28;20390;-78
2023/04/09 01:11:30;;;;;;;28.42;18.52;;;;;;;9.99;58.61;101717.97;5014832;28;20364;-79
2023/04/09 01:14:18;;;;;;;29.10;17.35;;;;;;;9.83;59.31;101708.00;5015377;28;20412;-78
2023/04/09 01:16:50;;;;;;;32.53;19.05;;;;;;;9.87;59.39;101727.91;5013801;28;20482;-79
2023/04/09 01:20:05;;;;;;;29.50;18.03;;;;;;;9.81;59.51;101720.50;5015178;28;20510;-78
2023/04/09 01:22:49;;;;;;;27.88;17.13;;;;;;;9.85;59.57;101713.97;4997329;28;20390;-80
2023/04/09 01:25:20;;;;;;;28.98;17.15;;;;;;;9.76;59.89;101717.47;5033618;28;20454;-79
2023/04/09 01:28:22;;;;;;;31.58;18.92;;;;;;;9.70;60.28;101725.94;5035592;28;20392;-79
2023/04/09 01:30:50;;;;;;;29.50;18.17;;;;;;;9.78;60.17;101723.47;5035248;28;20500;-79
2023/04/09 01:33:18;;;;;;;31.08;19.00;;;;;;;9.93;59.35;101723.84;5017525;28;20384;-79
2023/04/09 01:35:46;;;;;;;29.13;17.65;;;;;;;9.97;59.52;101719.94;5018060;28;20380;-80
2023/04/09 01:38:13;;;;;;;28.95;17.40;;;;;;;9.95;59.21;101722.72;5016923;28;20388;-79
2023/04/09 01:40:39;;;;;;;25.43;17.20;;;;;;;9.94;59.47;101718.44;5017217;28;20384;-80
2023/04/09 01:43:06;;;;;;;27.67;17.92;;;;;;;9.86;59.50;101726.22;5016920;28;20436;-79
2023/04/09 01:45:33;;;;;;;31.67;18.63;;;;;;;9.85;60.13;101729.00;5016243;28;20399;-79
2023/04/09 01:48:00;;;;;;;33.58;19.02;;;;;;;9.81;59.62;101717.84;5017381;28;20376;-79
2023/04/09 01:50:26;;;;;;;33.95;18.55;;;;;;;9.87;59.57;101722.59;5018676;28;20392;-80
2023/04/09 01:52:51;;;;;;;29.80;18.80;;;;;;;10.02;59.36;101728.31;5016899;28;20470;-79
2023/04/09 01:55:17;;;;;;;28.50;18.98;;;;;;;10.04;59.25;101738.75;5015927;28;20376;-79
2023/04/09 01:57:43;;;;;;;30.83;19.07;;;;;;;10.01;58.99;101729.31;5015101;28;20903;-79
2023/04/09 02:00:09;;;;;;;33.00;21.40;;;;;;;9.99;59.08;101727.75;5015929;28;20439;-79
2023/04/09 02:03:00;;;;;;;33.75;19.65;;;;;;;9.75;59.83;101731.66;5015190;28;20395;-79
2023/04/09 02:05:30;;;;;;;29.58;18.98;;;;;;;9.69;60.88;101722.47;5014313;28;20406;-77
2023/04/09 02:07:58;;;;;;;30.13;18.88;;;;;;;9.71;60.43;101733.75;5015363;28;20522;-79
2023/04/09 02:10:27;;;;;;;31.58;19.70;;;;;;;9.58;60.38;101725.25;5014699;28;20379;-79
2023/04/09 02:12:54;;;;;;;31.67;19.23;;;;;;;9.73;59.92;101730.97;5014594;28;20395;-78
2023/04/09 02:15:20;;;;;;;27.40;18.52;;;;;;;9.74;59.51;101725.53;5014686;28;20403;-78
2023/04/09 02:17:46;;;;;;;32.05;18.98;;;;;;;9.72;59.89;101710.75;5013141;28;20888;-78
2023/04/09 02:20:16;;;;;;;32.00;18.80;;;;;;;9.80;59.46;101723.31;5012911;28;20384;-78
2023/04/09 02:22:42;;;;;;;31.15;17.65;;;;;;;9.90;59.31;101727.63;5015243;28;20456;-78
2023/04/09 02:25:07;;;;;;;28.90;18.53;;;;;;;9.85;59.35;101716.63;5023583;28;20443;-79
2023/04/09 02:27:33;;;;;;;31.07;18.27;;;;;;;9.88;59.38;101723.44;5020952;28;20386;-78
2023/04/09 02:29:58;;;;;;;31.58;18.77;;;;;;;9.87;59.82;101732.38;5020208;28;20943;-78
2023/04/09 02:32:24;;;;;;;30.27;18.40;;;;;;;9.75;59.80;101723.72;5019929;28;20368;-78
2023/04/09 02:34:49;;;;;;;31.27;19.30;;;;;;;9.79;60.01;101721.63;5021251;28;20393;-76
2023/04/09 02:37:15;;;;;;;27.27;17.98;;;;;;;9.80;60.33;101728.63;5021794;28;20848;-77
2023/04/09 02:39:40;;;;;;;27.87;19.17;;;;;;;9.76;60.39;101720.94;5020849;28;20383;-77
2023/04/09 02:42:06;;;;;;;30.97;17.93;;;;;;;9.85;60.14;101726.34;5022551;28;20807;-78
2023/04/09 02:44:32;;;;;;;27.97;18.20;;;;;;;9.83;60.16;101715.94;5021215;28;20387;-78
2023/04/09 02:46:58;;;;;;;30.17;18.50;;;;;;;9.79;60.49;101722.47;5021531;28;20403;-77
2023/04/09 02:49:23;;;;;;;27.30;18.27;;;;;;;9.82;60.58;101730.13;5021382;28;20386;-78
2023/04/09 02:51:48;;;;;;;31.63;20.10;;;;;;;9.77;60.44;101727.06;5018478;28;20372;-77
2023/04/09 02:54:14;;;;;;;31.47;19.43;;;;;;;9.74;60.48;101722.03;5022675;28;20382;-79
2023/04/09 02:56:40;;;;;;;31.17;19.70;;;;;;;9.82;60.36;101731.97;5025276;28;20738;-80
2023/04/09 02:59:05;;;;;;;30.73;19.53;;;;;;;9.85;60.67;101713.13;5024609;28;20382;-79
2023/04/09 03:01:30;;;;;;;29.63;18.17;;;;;;;9.85;60.59;101721.91;5027872;28;20383;-78
2023/04/09 03:03:56;;;;;;;29.30;19.20;;;;;;;9.77;60.09;101722.59;5024080;28;20384;-80
2023/04/09 03:06:22;;;;;;;29.67;19.25;;;;;;;9.72;60.54;101719.56;5026789;28;20498;-78
2023/04/09 03:08:47;;;;;;;28.15;19.35;;;;;;;9.81;60.23;101730.28;5035736;28;20379;-79
2023/04/09 03:11:12;;;;;;;29.03;19.00;;;;;;;9.81;60.25;101720.50;5035082;28;20385;-77
2023/04/09 03:13:38;;;;;;;28.43;19.27;;;;;;;9.81;59.88;101719.69;5035815;28;20457;-77
2023/04/09 03:16:04;;;;;;;29.88;18.83;;;;;;;9.75;60.15;101724.56;5035215;28;20456;-77
2023/04/09 03:18:29;;;;;;;33.30;20.20;;;;;;;9.77;59.87;101724.41;5035186;28;20386;-78
2023/04/09 03:20:55;;;;;;;31.93;19.53;;;;;;;9.68;60.18;101722.59;5035424;28;20393;-78
2023/04/09 03:23:21;;;;;;;33.10;19.67;;;;;;;9.47;60.90;101722.72;5035546;28;20474;-77
2023/04/09 03:25:46;;;;;;;36.50;20.87;;;;;;;9.43;60.88;101719.53;5034967;28;20482;-79
2023/04/09 03:28:11;;;;;;;35.75;22.20;;;;;;;9.42;61.32;101730.25;5035500;28;20447;-77
2023/04/09 03:30:37;;;;;;;32.63;22.07;;;;;;;9.40;60.96;101724.25;5035534;28;20386;-77
2023/04/09 03:33:02;;;;;;;34.37;21.60;;;;;;;9.44;61.35;101725.66;5042587;28;20526;-79
2023/04/09 03:35:28;;;;;;;36.40;21.40;;;;;;;9.42;60.96;101725.81;5038749;28;20389;-79
2023/04/09 03:37:53;;;;;;;32.70;20.43;;;;;;;9.35;61.17;101730.81;5035665;28;20379;-79
2023/04/09 03:40:19;;;;;;;34.83;20.90;;;;;;;9.27;61.30;101725.34;5033077;28;20382;-78
2023/04/09 03:42:44;;;;;;;32.37;20.27;;;;;;;9.19;61.66;101728.69;5024300;28;20382;-78
2023/04/09 03:45:10;;;;;;;33.17;21.57;;;;;;;9.13;61.95;101720.47;5022142;28;20418;-77
2023/04/09 03:47:35;;;;;;;34.65;22.55;;;;;;;9.16;61.65;101721.03;5015384;28;20887;-77
2023/04/09 03:50:01;;;;;;;32.47;21.73;;;;;;;9.19;61.59;101733.13;5024259;28;20390;-78
2023/04/09 03:52:27;;;;;;;33.05;21.75;;;;;;;9.15;62.00;101722.00;5022648;28;20422;-78
2023/04/09 03:54:52;;;;;;;36.30;21.80;;;;;;;9.09;62.31;101724.34;5044144;28;20458;-78
2023/04/09 03:57:18;;;;;;;29.40;21.57;;;;;;;9.18;61.91;101737.59;5039859;28;20861;-77
2023/04/09 03:59:44;;;;;;;32.27;21.00;;;;;;;9.10;62.21;101726.84;5013810;28;20395;-77
2023/04/09 04:02:09;;;;;;;31.67;21.13;;;;;;;9.05;62.43;101728.22;5017558;28;20392;-77
2023/04/09 04:04:35;;;;;;;31.63;20.83;;;;;;;9.09;62.15;101722.56;5022582;28;20386;-79
2023/04/09 04:07:02;;;;;;;33.40;21.10;;;;;;;9.07;62.16;101727.09;5024661;28;20419;-79
2023/04/09 04:09:27;;;;;;;31.13;21.20;;;;;;;8.95;63.07;101725.56;5025341;28;20388;-79
2023/04/09 04:11:54;;;;;;;31.77;20.03;;;;;;;8.87;63.29;101730.69;5028192;28;20467;-78
2023/04/09 04:14:20;;;;;;;32.90;20.92;;;;;;;8.94;62.80;101737.09;5029217;28;20479;-78
2023/04/09 04:16:45;;;;;;;34.97;21.60;;;;;;;8.98;62.67;101736.72;5014489;28;20487;-77
2023/04/09 04:19:11;;;;;;;32.63;21.10;;;;;;;9.05;61.91;101733.53;5017737;28;20384;-78
2023/04/09 04:21:36;;;;;;;34.73;22.20;;;;;;;8.98;62.02;101736.72;5013601;28;20392;-77
2023/04/09 04:24:02;;;;;;;34.33;22.13;;;;;;;9.06;61.76;101736.03;5023014;28;20407;-77
2023/04/09 04:26:27;;;;;;;34.03;21.50;;;;;;;9.09;61.76;101742.84;5028893;28;20416;-78
2023/04/09 04:28:52;;;;;;;32.93;21.13;;;;;;;9.06;61.71;101732.56;5019254;28;20396;-79
2023/04/09 04:31:18;;;;;;;30.33;20.55;;;;;;;9.07;61.75;101737.69;5013915;28;20390;-77
2023/04/09 04:33:43;;;;;;;31.13;20.67;;;;;;;9.11;62.01;101747.06;5019470;28;20388;-77
2023/04/09 04:36:11;;;;;;;31.90;22.03;;;;;;;9.20;61.14;101734.81;5029955;28;20387;-78
2023/04/09 04:38:38;;;;;;;31.60;19.85;;;;;;;9.16;61.64;101736.91;5014438;28;20418;-78
2023/04/09 04:41:03;;;;;;;36.17;20.75;;;;;;;9.19;61.51;101735.78;5022140;28;20400;-77
2023/04/09 04:43:29;;;;;;;31.10;20.33;;;;;;;9.22;60.99;101743.47;5019283;28;20392;-78
2023/04/09 04:45:55;;;;;;;34.53;21.10;;;;;;;9.18;61.30;101742.91;5014122;28;20436;-79
2023/04/09 04:48:21;;;;;;;33.15;21.08;;;;;;;9.20;61.35;101742.75;5031957;28;20395;-78
2023/04/09 04:50:53;;;;;;;36.35;21.25;;;;;;;9.19;61.52;101741.91;5022004;28;20854;-78
2023/04/09 04:53:18;;;;;;;32.15;20.35;;;;;;;9.26;61.28;101758.09;5020854;28;20915;-78
2023/04/09 04:55:44;;;;;;;33.60;20.95;;;;;;;9.23;60.97;101745.13;5016033;28;20416;-77
2023/04/09 04:58:09;;;;;;;33.23;21.40;;;;;;;9.26;60.95;101746.66;5017552;28;20738;-77
2023/04/09 05:00:35;;;;;;;31.67;20.90;;;;;;;9.22;61.12;101747.88;5029348;28;20387;-78
2023/04/09 05:03:00;;;;;;;32.33;20.40;;;;;;;9.18;61.64;101749.97;5014107;28;20392;-78
2023/04/09 05:05:26;;;;;;;31.63;20.57;;;;;;;9.16;61.38;101758.06;5014265;28;20733;-78
2023/04/09 05:07:51;;;;;;;33.87;20.77;;;;;;;9.10;61.80;101760.41;5028913;28;20398;-77
2023/04/09 05:10:17;;;;;;;30.00;21.02;;;;;;;9.17;61.51;101753.59;4997819;28;20421;-78
2023/04/09 05:12:42;;;;;;;33.33;20.50;;;;;;;9.11;61.53;101759.41;5041992;28;20382;-78
2023/04/09 05:15:08;;;;;;;34.70;22.20;;;;;;;9.15;61.95;101766.97;5041924;28;20499;-78
2023/04/09 05:17:33;;;;;;;32.22;21.17;;;;;;;9.09;62.11;101764.00;5049478;28;20391;-79
2023/04/09 05:19:59;;;;;;;35.47;23.43;;;;;;;8.95;62.27;101763.41;5044746;28;20398;-79
2023/04/09 05:22:25;;;;;;;32.47;22.33;;;;;;;9.04;62.12;101767.06;5043598;28;20377;-79
2023/04/09 05:24:50;;;;;;;35.67;22.80;;;;;;;9.16;62.07;101767.78;5045559;28;20387;-78
2023/04/09 05:27:18;;;;;;;34.83;21.67;;;;;;;9.15;62.10;101772.25;5054255;28;20782;-78
2023/04/09 05:29:43;;;;;;;38.80;23.65;;;;;;;9.15;62.16;101768.78;5070574;28;20479;-77
2023/04/09 05:32:09;;;;;;;36.67;23.63;;;;;;;9.25;61.92;101772.28;5068891;28;20427;-77
2023/04/09 05:34:35;;;;;;;35.00;22.50;;;;;;;9.15;62.03;101777.53;5057471;28;20400;-78
2023/04/09 05:37:01;;;;;;;38.63;24.42;;;;;;;9.26;61.64;101763.38;5048861;28;20394;-78
2023/04/09 05:39:26;;;;;;;35.95;23.95;;;;;;;9.43;61.34;101776.91;5048644;28;20483;-78
2023/04/09 05:41:51;;;;;;;35.47;23.27;;;;;;;9.31;61.42;101778.81;5051534;28;20392;-78
2023/04/09 05:44:17;;;;;;;33.93;24.07;;;;;;;9.40;61.18;101779.81;5037003;28;20397;-78
2023/04/09 05:46:43;;;;;;;35.73;24.47;;;;;;;9.52;61.13;101784.84;5045654;28;20928;-77
2023/04/09 05:49:08;;;;;;;35.17;23.10;;;;;;;9.52;61.01;101779.56;5041578;28;20746;-78
2023/04/09 05:51:34;;;;;;;35.38;23.45;;;;;;;9.34;61.37;101776.75;5045903;28;20392;-77
2023/04/09 05:53:59;;;;;;;33.80;22.60;;;;;;;9.47;61.13;101775.66;5036033;28;20472;-77
2023/04/09 05:56:26;;;;;;;37.43;23.67;;;;;;;9.53;60.74;101783.91;5048968;28;20397;-78
2023/04/09 05:58:52;;;;;;;38.07;24.73;;;;;;;9.53;61.20;101777.78;5040188;28;20442;-80
2023/04/09 06:01:18;;;;;;;37.40;24.42;;;;;;;9.52;61.07;101781.38;5043712;28;20759;-79
2023/04/09 06:03:43;;;;;;;37.67;23.57;;;;;;;9.46;60.99;101774.00;5031412;28;20778;-79
2023/04/09 06:06:09;;;;;;;40.47;24.43;;;;;;;9.42;61.40;101776.09;5035228;28;20442;-78
2023/04/09 06:08:34;;;;;;;37.25;24.77;;;;;;;9.46;61.39;101776.66;5041207;28;20397;-79
2023/04/09 06:11:00;;;;;;;38.10;23.97;;;;;;;9.50;61.46;101778.88;5038770;28;20387;-79
2023/04/09 06:13:25;;;;;;;39.47;24.80;;;;;;;9.51;61.63;101777.09;5039812;28;20390;-77
2023/04/09 06:15:51;;;;;;;37.45;24.60;;;;;;;9.61;61.63;101785.84;5039759;28;20394;-79
2023/04/09 06:18:16;;;;;;;39.30;25.60;;;;;;;9.51;61.78;101783.22;5041522;28;20448;-78
2023/04/09 06:20:42;;;;;;;35.67;24.17;;;;;;;9.49;61.65;101779.88;5038861;28;20386;-79
2023/04/09 06:23:08;;;;;;;35.60;23.67;;;;;;;9.57;62.02;101793.22;5038570;28;20390;-78
2023/04/09 06:25:35;;;;;;;33.65;23.90;;;;;;;9.69;61.85;101796.59;5039020;28;20871;-78
2023/04/09 06:28:01;;;;;;;37.08;24.13;;;;;;;9.70;62.11;101790.31;5041991;28;20413;-78
2023/04/09 06:30:27;;;;;;;37.05;24.45;;;;;;;9.75;61.91;101793.41;5040459;28;20948;-78
2023/04/09 06:32:53;;;;;;;37.65;23.83;;;;;;;9.75;61.91;101785.44;5042452;28;20534;-78
2023/04/09 06:35:18;;;;;;;36.20;23.87;;;;;;;9.73;61.63;101784.75;5045308;28;20389;-79
2023/04/09 06:37:44;;;;;;;40.93;25.33;;;;;;;9.85;61.83;101792.56;5036178;28;20386;-78
2023/04/09 06:40:11;;;;;;;37.50;24.85;;;;;;;9.77;61.72;101796.75;5049471;28;20383;-78
2023/04/09 06:42:36;;;;;;;35.65;23.13;;;;;;;9.76;61.44;101792.44;5042138;28;20404;-78
2023/04/09 06:45:07;;;;;;;38.95;24.15;;;;;;;9.82;61.64;101791.03;5042634;28;20418;-78
2023/04/09 06:47:34;;;;;;;36.65;23.92;;;;;;;9.93;61.27;101795.38;5045764;28;20795;-78
2023/04/09 06:49:59;;;;;;;40.47;24.20;;;;;;;9.97;61.06;101793.28;5047617;28;20864;-79
2023/04/09 06:52:25;;;;;;;38.60;24.73;;;;;;;10.18;61.10;101801.91;5045776;28;20412;-78
2023/04/09 06:54:50;;;;;;;38.60;24.25;;;;;;;10.16;60.84;101800.41;5038220;28;21124;-78
2023/04/09 06:57:16;;;;;;;35.57;22.80;;;;;;;10.21;60.17;101798.13;5050639;28;20389;-77
2023/04/09 06:59:41;;;;;;;40.33;23.60;;;;;;;10.09;60.64;101795.66;5041543;28;20405;-78
2023/04/09 07:02:07;;;;;;;36.05;22.75;;;;;;;9.99;60.67;101809.88;5039361;28;20497;-78
2023/04/09 07:04:33;;;;;;;38.97;23.00;;;;;;;10.05;60.32;101804.84;5042329;28;20460;-78
2023/04/09 07:06:58;;;;;;;37.10;23.55;;;;;;;10.03;60.90;101798.88;5041660;28;20803;-78
2023/04/09 07:09:24;;;;;;;35.40;23.20;;;;;;;9.94;60.92;101800.53;5051887;28;20431;-78
2023/04/09 07:11:50;;;;;;;33.23;22.77;;;;;;;10.05;61.06;101804.84;5037440;28;20921;-80
2023/04/09 07:14:15;;;;;;;36.25;23.35;;;;;;;10.18;60.18;101809.88;5049724;28;20390;-78
2023/04/09 07:16:41;;;;;;;32.87;21.97;;;;;;;10.04;60.96;101802.34;5042504;28;20390;-79
2023/04/09 07:19:07;;;;;;;37.30;23.08;;;;;;;10.06;60.86;101810.97;5056633;28;20384;-78
2023/04/09 07:21:32;;;;;;;35.45;22.40;;;;;;;10.03;60.42;101803.31;5050808;28;20413;-79
2023/04/09 07:23:58;;;;;;;39.50;24.57;;;;;;;10.28;60.66;101815.16;5041213;28;20426;-78
2023/04/09 07:26:23;;;;;;;33.87;24.77;;;;;;;10.50;60.11;101816.72;5037999;28;20410;-79
2023/04/09 07:28:49;;;;;;;39.92;25.33;;;;;;;10.69;59.70;101814.00;5042108;28;20424;-78
2023/04/09 07:31:15;;;;;;;35.10;22.85;;;;;;;10.80;59.39;101826.25;5035006;28;20397;-78
2023/04/09 07:33:40;;;;;;;33.57;21.93;;;;;;;10.42;59.74;101814.75;5036193;28;20407;-78
2023/04/09 07:36:06;;;;;;;34.53;22.60;;;;;;;10.61;59.74;101821.84;5042844;28;20385;-78
2023/04/09 07:38:32;;;;;;;38.55;23.45;;;;;;;10.60;59.37;101819.31;5040058;28;20453;-78
2023/04/09 07:40:57;;;;;;;33.80;21.92;;;;;;;10.73;59.14;101827.81;5051343;28;20465;-78
2023/04/09 07:43:23;;;;;;;33.97;21.63;;;;;;;10.74;58.78;101824.19;5045308;28;20390;-77
2023/04/09 07:45:50;;;;;;;33.77;21.30;;;;;;;10.78;58.97;101833.50;5034072;28;20475;-78
2023/04/09 07:48:16;;;;;;;33.40;21.25;;;;;;;10.92;58.45;101831.41;5047387;28;20478;-76
2023/04/09 07:50:43;;;;;;;34.85;21.35;;;;;;;10.96;57.96;101828.28;5050299;28;20429;-78
2023/04/09 07:53:10;;;;;;;33.60;20.10;;;;;;;10.85;57.47;101826.66;5035450;28;20986;-78
2023/04/09 07:55:36;;;;;;;35.20;21.83;;;;;;;10.88;57.49;101828.19;5043326;28;20406;-78
2023/04/09 07:58:02;;;;;;;35.23;21.23;;;;;;;10.95;57.59;101842.56;5049198;28;20462;-78
2023/04/09 08:00:28;;;;;;;35.00;20.98;;;;;;;11.01;57.08;101835.84;5050662;28;20382;-79
2023/04/09 08:02:53;;;;;;;30.03;20.37;;;;;;;10.88;56.67;101829.03;5042737;28;20400;-79
2023/04/09 08:05:19;;;;;;;31.17;21.20;;;;;;;11.10;56.35;101824.34;5040401;28;20394;-76
2023/04/09 08:07:44;;;;;;;29.63;19.48;;;;;;;11.07;55.74;101827.28;5033331;28;20460;-78
2023/04/09 08:10:13;;;;;;;33.47;20.37;;;;;;;10.97;55.73;101827.31;5034448;28;20392;-78
2023/04/09 08:12:39;;;;;;;27.87;19.17;;;;;;;11.00;55.38;101829.69;5042700;28;20943;-78
2023/04/09 08:15:05;;;;;;;32.60;20.65;;;;;;;11.14;55.33;101833.66;5022804;28;20388;-78
2023/04/09 08:17:31;;;;;;;34.70;20.58;;;;;;;11.24;55.24;101838.97;5041054;28;20387;-77
2023/04/09 08:19:56;;;;;;;31.33;20.57;;;;;;;11.27;55.03;101843.94;5042646;28;20388;-78
2023/04/09 08:22:22;;;;;;;29.80;19.73;;;;;;;11.28;54.88;101846.47;5052118;28;20517;-78
2023/04/09 08:24:52;;;;;;;32.72;20.92;;;;;;;11.26;54.40;101831.69;5048822;28;20688;-79
2023/04/09 08:27:18;;;;;;;29.73;20.17;;;;;;;11.26;54.73;101835.16;5048332;28;20410;-78
2023/04/09 08:29:43;;;;;;;29.80;19.65;;;;;;;11.41;54.32;101832.00;5036901;28;20398;-78
2023/04/09 08:32:09;;;;;;;33.83;20.10;;;;;;;11.48;54.33;101835.75;5039106;28;21075;-77
2023/04/09 08:34:34;;;;;;;33.77;20.27;;;;;;;11.45;54.35;101838.69;5049746;28;20393;-78
2023/04/09 08:37:00;;;;;;;31.00;19.67;;;;;;;11.42;54.77;101842.50;5049240;28;20393;-78
2023/04/09 08:39:26;;;;;;;29.67;19.92;;;;;;;11.44;55.20;101840.53;5049868;28;20380;-78
2023/04/09 08:41:51;;;;;;;39.43;22.40;;;;;;;11.38;54.85;101843.78;5049319;28;20434;-78
2023/04/09 08:44:17;;;;;;;33.50;21.40;;;;;;;11.44;55.10;101840.53;5058947;28;20392;-79
2023/04/09 08:46:43;;;;;;;33.47;20.60;;;;;;;11.41;54.83;101834.66;5054547;28;20461;-78
2023/04/09 08:49:12;;;;;;;34.20;20.50;;;;;;;11.48;54.48;101838.41;5051352;28;20400;-77
2023/04/09 08:51:38;;;;;;;36.60;20.95;;;;;;;11.51;54.49;101831.97;5052431;28;20824;-77
2023/04/09 08:54:03;;;;;;;34.13;20.30;;;;;;;11.55;54.13;101836.81;5052298;28;20405;-77
2023/04/09 08:56:29;;;;;;;36.13;20.02;;;;;;;11.63;53.94;101842.25;5052423;28;20387;-78
2023/04/09 08:58:55;;;;;;;29.97;19.80;;;;;;;11.65;54.04;101839.44;5053167;28;20380;-77
2023/04/09 09:01:22;;;;;;;33.47;21.13;;;;;;;11.72;54.23;101842.31;5057992;28;20384;-77
2023/04/09 09:03:55;;;;;;;34.35;20.73;;;;;;;11.74;54.31;101849.16;5053438;28;20385;-78
2023/04/09 09:06:30;;;;;;;31.48;19.85;;;;;;;11.61;54.48;101848.66;5052239;28;21169;-78
2023/04/09 09:09:16;;;;;;;29.63;19.27;;;;;;;11.67;54.37;101845.44;5052604;28;20475;-78
2023/04/09 09:11:45;;;;;;;31.08;20.70;;;;;;;11.78;54.14;101847.03;5067689;28;20377;-78
2023/04/09 09:14:14;;;;;;;68.15;40.08;;;;;;;11.85;54.40;101848.13;5068861;28;20381;-79
2023/04/09 09:16:55;;;;;;;33.53;21.17;;;;;;;11.82;54.10;101843.09;5067810;28;20920;-78
2023/04/09 09:19:23;;;;;;;31.05;21.17;;;;;;;11.80;53.81;101831.78;5053803;28;20408;-80
2023/04/09 09:22:03;;;;;;;33.20;20.80;;;;;;;11.77;54.03;101840.88;5053535;28;20380;-77
2023/04/09 09:24:31;;;;;;;29.03;20.23;;;;;;;11.91;53.72;101834.25;5052600;28;20996;-78
2023/04/09 09:26:57;;;;;;;29.90;19.70;;;;;;;11.83;53.93;101840.28;5053559;28;20422;-79
2023/04/09 09:29:23;;;;;;;33.05;20.75;;;;;;;11.88;53.82;101831.84;5052470;28;20380;-79
2023/04/09 09:31:53;;;;;;;30.70;20.95;;;;;;;11.91;53.79;101830.75;5053248;28;20435;-79
2023/04/09 09:34:21;;;;;;;43.42;27.50;;;;;;;11.86;53.88;101825.84;5053746;28;20383;-79
2023/04/09 09:36:46;;;;;;;29.92;19.70;;;;;;;11.93;53.61;101837.59;5053523;28;20384;-78
2023/04/09 09:39:13;;;;;;;28.95;20.48;;;;;;;12.11;53.40;101831.44;5053903;28;20369;-80
2023/04/09 09:41:40;;;;;;;38.55;21.17;;;;;;;11.92;53.72;101829.75;5054172;28;20510;-79
2023/04/09 09:44:07;;;;;;;30.40;17.73;;;;;;;11.71;54.26;101832.69;5053985;28;20377;-79
2023/04/09 09:46:34;;;;;;;29.23;20.10;;;;;;;11.39;55.12;101836.63;5053908;28;20459;-79
2023/04/09 09:49:00;;;;;;;31.30;20.17;;;;;;;11.34;55.04;101818.50;5055626;28;20463;-78
2023/04/09 09:51:29;;;;;;;42.25;23.98;;;;;;;11.64;54.87;101829.78;5055900;28;20413;-79
2023/04/09 09:53:56;;;;;;;27.40;18.97;;;;;;;11.72;54.41;101831.69;5054811;28;20420;-80
2023/04/09 09:56:31;;;;;;;37.22;22.17;;;;;;;11.84;54.07;101826.00;5055126;28;20386;-80
2023/04/09 09:59:22;;;;;;;34.67;22.23;;;;;;;11.90;53.93;101826.41;5055275;28;20385;-80
2023/04/09 10:01:56;;;;;;;27.38;19.27;;;;;;;11.91;53.67;101817.47;5054101;28;20464;-77
2023/04/09 10:04:22;;;;;;;34.33;20.20;;;;;;;11.86;53.54;101810.75;5051666;28;20384;-78
2023/04/09 10:06:50;;;;;;;28.75;19.20;;;;;;;11.87;53.59;101816.91;5051402;28;20409;-77
2023/04/09 10:09:16;;;;;;;28.63;19.35;;;;;;;11.88;53.76;101823.06;5051070;28;20393;-78
2023/04/09 10:11:44;;;;;;;30.40;19.63;;;;;;;11.87;53.68;101814.25;5050948;28;20381;-78
2023/04/09 10:14:10;;;;;;;28.05;19.17;;;;;;;11.96;53.73;101816.03;5051395;28;20476;-78
2023/04/09 10:16:36;;;;;;;27.30;19.33;;;;;;;12.01;53.57;101831.50;5051829;28;20463;-78
2023/04/09 10:19:02;;;;;;;27.80;18.15;;;;;;;12.10;53.60;101820.00;5051638;28;20476;-78
2023/04/09 10:21:46;;;;;;;23.70;16.90;;;;;;;11.95;53.67;101817.00;5052568;28;20384;-78
2023/04/09 10:24:12;;;;;;;27.40;18.60;;;;;;;12.06;53.39;101821.25;5051253;28;20385;-78
2023/04/09 10:26:43;;;;;;;31.50;20.13;;;;;;;12.14;53.47;101826.66;5056123;28;20404;-77
2023/04/09 10:29:13;;;;;;;23.90;17.35;;;;;;;11.95;53.16;101817.00;5054340;28;20373;-79
2023/04/09 10:31:46;;;;;;;28.13;18.53;;;;;;;11.92;53.45;101813.81;5054975;28;20391;-78
2023/04/09 10:34:17;;;;;;;27.45;19.27;;;;;;;12.11;53.44;101818.97;5054251;28;20396;-79
2023/04/09 10:36:44;;;;;;;26.80;17.75;;;;;;;12.05;53.39;101824.91;5055120;28;20387;-78
2023/04/09 10:39:12;;;;;;;25.52;18.50;;;;;;;11.96;53.69;101818.69;5055157;28;20392;-80
2023/04/09 10:41:39;;;;;;;26.30;18.55;;;;;;;12.20;53.45;101828.69;5056627;28;20412;-79
2023/04/09 10:44:31;;;;;;;27.88;19.52;;;;;;;12.09;53.60;101798.88;5055726;28;20475;-78
2023/04/09 10:46:57;;;;;;;30.45;19.05;;;;;;;12.30;53.40;101804.69;5056137;28;20409;-79
2023/04/09 10:49:26;;;;;;;31.27;19.17;;;;;;;12.37;53.07;101807.56;5055370;28;20376;-79
2023/04/09 10:52:12;;;;;;;27.90;20.42;;;;;;;12.50;53.11;101807.16;5055056;28;20381;-80
2023/04/09 10:54:42;;;;;;;109.67;59.07;;;;;;;12.40;53.14;101809.91;5050301;28;20384;-77
2023/04/09 10:57:12;;;;;;;30.02;20.20;;;;;;;12.21;53.26;101800.31;5051683;28;20373;-79
2023/04/09 10:59:46;;;;;;;27.42;19.38;;;;;;;12.36;53.18;101801.41;5053055;28;20880;-79
2023/04/09 11:02:38;;;;;;;29.02;19.13;;;;;;;12.46;53.28;101795.16;5053031;28;20373;-78
2023/04/09 11:05:30;;;;;;;29.70;19.30;;;;;;;12.70;52.68;101803.31;5051481;28;20389;-79
2023/04/09 11:08:11;;;;;;;27.65;19.75;;;;;;;12.75;52.86;101805.50;5052454;28;20868;-78
2023/04/09 11:10:37;;;;;;;29.60;19.08;;;;;;;12.69;52.57;101796.28;5050719;28;20805;-78
2023/04/09 11:13:03;;;;;;;26.92;18.02;;;;;;;12.46;52.95;101797.81;5051877;28;20519;-78
2023/04/09 11:15:31;;;;;;;29.40;18.92;;;;;;;12.49;53.19;101795.69;5051525;28;20809;-78
2023/04/09 11:17:57;;;;;;;31.10;19.70;;;;;;;12.70;53.03;101807.78;5051704;28;20384;-78